Time;durP1;ratioP1;P1;durP2;ratioP2;P2;SDS_P1;SDS_P2;PMS_P1;PMS_P2;Temp;Humidity;BMP_temperature;BMP_pressure;BME280_temperature;BME280_humidity;BME280_pressure;Samples;Min_cycle;Max_cycle;Signal;HPM_P1;HPM_P2
2022/10/01 00:01:50;;;;;;;2.75;0.90;;;;;;;19.18;44.27;100304.03;16124761;19;129597;-58
2022/10/01 00:07:13;;;;;;;4.30;0.50;;;;;;;19.19;44.25;100285.47;16123560;19;131075;-58
2022/10/01 00:12:37;;;;;;;1.33;0.52;;;;;;;19.19;44.05;100257.75;16126314;19;129560;-58
2022/10/01 00:17:59;;;;;;;1.10;0.60;;;;;;;19.16;43.89;100227.75;16120710;19;129355;-58
2022/10/01 00:23:20;;;;;;;3.58;0.60;;;;;;;19.15;44.24;100199.19;16124412;19;129737;-59
2022/10/01 00:28:45;;;;;;;1.73;0.60;;;;;;;19.14;43.58;100182.81;16121690;19;129073;-58
2022/10/01 00:34:08;;;;;;;1.50;0.35;;;;;;;19.13;43.68;100220.81;16121801;19;130800;-58
2022/10/01 00:39:30;;;;;;;0.60;0.40;;;;;;;19.12;43.84;100208.06;16119306;19;129263;-58
2022/10/01 00:44:52;;;;;;;3.08;0.60;;;;;;;19.10;43.47;100209.41;16116544;19;130354;-59
2022/10/01 00:50:23;;;;;;;1.08;0.50;;;;;;;19.08;43.90;100224.38;16117166;19;129739;-59
2022/10/01 00:55:54;;;;;;;4.57;0.70;;;;;;;19.07;43.65;100217.19;16118550;19;129507;-58
2022/10/01 01:01:15;;;;;;;3.20;0.70;;;;;;;19.07;43.85;100232.97;16117769;19;129963;-58
2022/10/01 01:06:37;;;;;;;1.55;0.55;;;;;;;19.05;43.80;100222.16;16122707;19;129514;-59
2022/10/01 01:12:26;;;;;;;1.45;0.50;;;;;;;19.06;43.64;100198.88;16131471;19;129644;-59
2022/10/01 01:17:51;;;;;;;2.08;0.45;;;;;;;19.03;43.88;100191.09;16136713;19;129719;-58
2022/10/01 01:23:15;;;;;;;2.47;0.50;;;;;;;19.02;43.85;100170.00;16133803;19;129981;-58
2022/10/01 01:28:46;;;;;;;1.60;0.55;;;;;;;19.02;43.67;100141.44;16131298;19;129791;-58
2022/10/01 01:34:11;;;;;;;2.00;0.80;;;;;;;19.01;43.88;100150.88;16128722;19;129460;-60
2022/10/01 01:39:34;;;;;;;1.52;0.52;;;;;;;18.99;43.81;100142.00;16132237;19;129741;-58
2022/10/01 01:44:59;;;;;;;2.53;0.55;;;;;;;18.98;43.74;100130.06;16131208;19;129699;-59
2022/10/01 01:50:27;;;;;;;1.45;0.50;;;;;;;18.98;43.69;100126.47;16127897;19;129894;-60
2022/10/01 01:55:49;;;;;;;1.10;0.50;;;;;;;18.96;43.71;100128.66;16131742;19;130031;-59
2022/10/01 02:01:33;;;;;;;0.80;0.50;;;;;;;18.98;43.48;100129.22;16127433;19;129593;-59
2022/10/01 02:07:14;;;;;;;0.68;0.50;;;;;;;18.95;43.70;100119.53;16126965;19;129451;-59
2022/10/01 02:12:37;;;;;;;1.70;0.40;;;;;;;18.93;43.64;100099.56;16129882;19;129335;-60
2022/10/01 02:18:21;;;;;;;1.58;0.47;;;;;;;18.92;43.48;100098.69;16126672;19;131141;-59
2022/10/01 02:24:02;;;;;;;2.97;0.68;;;;;;;18.91;43.68;100074.03;16126860;19;129609;-59
2022/10/01 02:29:23;;;;;;;0.70;0.40;;;;;;;18.89;43.90;100079.00;16126470;19;129489;-65
2022/10/01 02:34:48;;;;;;;1.48;0.38;;;;;;;18.88;43.77;100085.66;16133970;19;129986;-62
2022/10/01 02:40:14;;;;;;;0.43;0.30;;;;;;;18.88;43.70;100055.16;16129247;19;129990;-61
2022/10/01 02:45:39;;;;;;;0.40;0.40;;;;;;;18.87;43.80;100078.44;16130052;19;129860;-59
2022/10/01 02:51:30;;;;;;;1.48;0.50;;;;;;;18.88;43.68;100071.81;16128061;19;129388;-59
2022/10/01 03:02:32;;;;;;;0.47;0.30;;;;;;;18.84;43.62;100062.34;16127675;19;130037;-58
2022/10/01 03:07:54;;;;;;;0.75;0.38;;;;;;;18.84;43.90;100057.66;16126545;19;131510;-63
2022/10/01 03:13:18;;;;;;;0.93;0.40;;;;;;;18.82;43.94;100048.78;16132020;19;129749;-59
2022/10/01 03:18:40;;;;;;;0.20;0.13;;;;;;;18.83;43.63;100055.16;16124707;19;129113;-58
2022/10/01 03:24:02;;;;;;;1.08;0.50;;;;;;;18.82;43.91;100053.50;16125102;19;129993;-59
2022/10/01 03:29:24;;;;;;;0.65;0.30;;;;;;;18.81;44.02;100049.88;16122017;19;129354;-58
2022/10/01 03:34:46;;;;;;;0.43;0.20;;;;;;;18.81;43.74;100036.00;16122673;19;129374;-58
2022/10/01 03:40:08;;;;;;;0.43;0.22;;;;;;;18.80;43.91;100041.84;16123542;19;129516;-58
2022/10/01 03:45:29;;;;;;;0.50;0.30;;;;;;;18.80;43.87;100034.34;16123960;19;129485;-58
2022/10/01 03:50:53;;;;;;;0.28;0.20;;;;;;;18.79;43.86;100054.84;16122966;19;130012;-59
2022/10/01 03:56:15;;;;;;;0.55;0.22;;;;;;;18.77;44.22;100057.91;16124660;19;129607;-58
2022/10/01 04:01:38;;;;;;;0.30;0.20;;;;;;;18.77;43.79;100057.91;16130188;19;131470;-58
2022/10/01 04:07:00;;;;;;;0.50;0.28;;;;;;;18.76;43.96;100061.75;16121504;19;130460;-59
2022/10/01 04:12:22;;;;;;;0.63;0.30;;;;;;;18.75;44.12;100065.63;16122038;19;129843;-59
2022/10/01 04:17:44;;;;;;;0.28;0.28;;;;;;;18.74;44.28;100058.41;16120486;19;130336;-59
2022/10/01 04:23:06;;;;;;;0.30;0.13;;;;;;;18.74;44.19;100063.16;16121773;19;130105;-59
2022/10/01 04:28:29;;;;;;;0.13;0.13;;;;;;;18.74;44.14;100063.97;16121435;19;129485;-59
2022/10/01 04:33:57;;;;;;;0.30;0.20;;;;;;;18.75;44.26;100064.81;16122065;19;130445;-59
2022/10/01 04:39:18;;;;;;;0.40;0.20;;;;;;;18.72;44.18;100068.13;16120173;19;129541;-59
2022/10/01 04:44:40;;;;;;;0.98;0.10;;;;;;;18.71;44.37;100075.56;16135959;19;129946;-58
2022/10/01 04:50:02;;;;;;;0.20;0.20;;;;;;;18.71;44.27;100074.75;16136835;19;129559;-59
2022/10/01 04:55:24;;;;;;;0.08;0.03;;;;;;;18.72;44.15;100081.97;16134863;19;129404;-59
2022/10/01 05:00:48;;;;;;;0.15;0.10;;;;;;;18.69;44.06;100083.34;16134005;19;130302;-58
2022/10/01 05:06:10;;;;;;;0.00;0.00;;;;;;;18.69;44.39;100097.19;16134266;19;129487;-58
2022/10/01 05:11:33;;;;;;;0.93;0.20;;;;;;;18.70;44.23;100092.47;16134214;19;129137;-60
2022/10/01 05:16:55;;;;;;;0.10;0.10;;;;;;;18.69;44.39;100099.13;16136083;19;130989;-59
2022/10/01 05:22:18;;;;;;;0.30;0.10;;;;;;;18.69;44.50;100127.69;16133586;19;129415;-59
2022/10/01 05:27:40;;;;;;;0.45;0.10;;;;;;;18.68;44.24;100131.53;16134985;19;130018;-59
2022/10/01 05:33:03;;;;;;;0.08;0.08;;;;;;;18.68;44.52;100131.53;16132358;19;129915;-59
2022/10/01 05:38:25;;;;;;;0.30;0.10;;;;;;;18.66;44.51;100132.88;16131614;19;130397;-58
2022/10/01 05:43:48;;;;;;;0.17;0.10;;;;;;;18.68;44.48;100141.78;16133022;19;130015;-58
2022/10/01 05:49:10;;;;;;;0.15;0.10;;;;;;;18.67;44.41;100154.81;16133252;19;131696;-59
2022/10/01 05:54:31;;;;;;;0.13;0.10;;;;;;;18.66;44.46;100158.66;16132169;19;129451;-59
2022/10/01 05:59:53;;;;;;;0.10;0.10;;;;;;;18.75;44.42;100164.56;16134183;19;129392;-59
2022/10/01 06:05:15;;;;;;;0.47;0.10;;;;;;;18.82;44.59;100169.88;16129662;19;129378;-59
2022/10/01 06:10:37;;;;;;;0.55;0.10;;;;;;;18.87;44.45;100172.66;16130359;19;132224;-59
2022/10/01 06:15:59;;;;;;;0.20;0.10;;;;;;;18.89;44.04;100184.31;16129512;19;129198;-58
2022/10/01 06:21:21;;;;;;;0.05;0.05;;;;;;;18.89;44.46;100190.69;16130593;19;129354;-58
2022/10/01 06:26:42;;;;;;;0.00;0.00;;;;;;;18.89;44.41;100198.19;16128493;19;129560;-60
2022/10/01 06:32:06;;;;;;;0.17;0.10;;;;;;;18.88;44.06;100205.69;16126652;19;129235;-58
2022/10/01 06:37:28;;;;;;;0.10;0.10;;;;;;;18.87;44.60;100208.69;16128941;19;130550;-59
2022/10/01 06:42:50;;;;;;;0.10;0.10;;;;;;;18.86;44.19;100216.19;16127867;19;129766;-59
2022/10/01 06:48:18;;;;;;;0.00;0.00;;;;;;;18.85;44.35;100213.66;16130452;19;134773;-59
2022/10/01 06:53:40;;;;;;;0.20;0.00;;;;;;;18.83;44.33;100204.81;16129187;19;129448;-59
2022/10/01 06:59:03;;;;;;;0.30;0.08;;;;;;;18.82;44.57;100217.81;16130334;19;129216;-59
2022/10/01 07:04:24;;;;;;;0.00;0.00;;;;;;;18.81;44.80;100216.13;16122156;19;129765;-58
2022/10/01 07:09:46;;;;;;;0.08;0.00;;;;;;;18.81;44.57;100223.63;16126777;19;129412;-58
2022/10/01 07:15:08;;;;;;;0.10;0.10;;;;;;;18.81;44.51;100234.72;16123696;19;129814;-59
2022/10/01 07:20:34;;;;;;;0.20;0.10;;;;;;;18.79;44.52;100243.28;16123764;19;129632;-58
2022/10/01 07:25:55;;;;;;;0.43;0.10;;;;;;;18.77;44.73;100238.00;16122145;19;129233;-59
2022/10/01 07:31:17;;;;;;;1.95;0.20;;;;;;;18.77;44.80;100257.41;16118843;19;129792;-59
2022/10/01 07:36:39;;;;;;;2.75;0.20;;;;;;;18.76;44.93;100260.44;16123790;19;129928;-58
2022/10/01 07:42:02;;;;;;;6.38;0.30;;;;;;;19.16;44.38;100264.63;16122201;19;129493;-58
2022/10/01 07:47:23;;;;;;;6.95;0.73;;;;;;;19.16;44.86;100277.66;16120585;19;130099;-58
2022/10/01 07:52:50;;;;;;;0.95;0.40;;;;;;;19.27;44.54;100287.75;16123514;19;130128;-58
2022/10/01 07:58:12;;;;;;;5.18;0.80;;;;;;;19.81;43.93;100299.75;16124192;19;130806;-58
2022/10/01 08:03:34;;;;;;;2.53;0.70;;;;;;;19.75;44.63;100303.59;16125037;19;130302;-58
2022/10/01 08:08:56;;;;;;;1.77;0.60;;;;;;;19.77;44.95;100326.38;16127744;19;129999;-58
2022/10/01 08:14:19;;;;;;;10.10;0.70;;;;;;;19.72;45.09;100338.28;16122644;19;129452;-58
2022/10/01 08:19:41;;;;;;;4.72;0.85;;;;;;;19.62;45.13;100343.78;16120769;19;130991;-57
2022/10/01 08:25:03;;;;;;;2.97;0.50;;;;;;;19.64;45.36;100349.88;16122681;19;129652;-58
2022/10/01 08:30:26;;;;;;;2.28;0.40;;;;;;;19.59;45.83;100356.22;16122181;19;130960;-58
2022/10/01 08:35:48;;;;;;;6.15;1.17;;;;;;;19.60;45.77;100366.22;16123716;19;129311;-58
2022/10/01 08:41:29;;;;;;;4.28;0.52;;;;;;;19.61;45.95;100370.66;16123481;19;129813;-59
2022/10/01 08:46:53;;;;;;;6.38;0.70;;;;;;;19.60;46.09;100366.22;16121997;19;130840;-58
2022/10/01 08:52:25;;;;;;;3.78;0.75;;;;;;;19.58;46.52;100376.75;16123019;19;130451;-59
2022/10/01 08:57:52;;;;;;;2.15;0.70;;;;;;;19.54;46.80;100375.63;16124451;19;129677;-58
2022/10/01 09:03:14;;;;;;;1.70;0.45;;;;;;;19.55;46.42;100391.16;16120133;19;129176;-58
2022/10/01 09:08:45;;;;;;;5.82;1.05;;;;;;;19.54;46.70;100395.03;16118302;19;130068;-58
2022/10/01 09:14:18;;;;;;;2.88;0.60;;;;;;;19.53;46.35;100396.16;16117262;19;129595;-56
2022/10/01 09:20:37;;;;;;;2.83;0.77;;;;;;;19.49;46.41;100406.09;16117207;19;129364;-58
2022/10/01 09:25:59;;;;;;;4.93;1.00;;;;;;;19.52;46.42;100411.13;16110207;19;129595;-58
2022/10/01 09:31:28;;;;;;;6.60;1.00;;;;;;;19.51;46.55;100409.44;16123997;19;129233;-58
2022/10/01 09:37:18;;;;;;;4.57;0.93;;;;;;;19.50;46.38;100421.63;16126035;19;130700;-58
2022/10/01 09:42:41;;;;;;;7.38;1.25;;;;;;;19.46;46.55;100424.09;16122859;19;130030;-59
2022/10/01 09:48:14;;;;;;;6.72;1.30;;;;;;;19.48;46.34;100429.38;16121587;19;129432;-58
2022/10/01 09:53:42;;;;;;;6.78;1.45;;;;;;;19.48;46.62;100437.69;16126358;19;130389;-58
2022/10/01 09:59:11;;;;;;;8.77;1.25;;;;;;;19.49;46.53;100444.94;16128778;19;130317;-58
2022/10/01 10:04:34;;;;;;;8.73;1.45;;;;;;;19.49;46.38;100437.47;16129836;19;130593;-58
2022/10/01 10:09:57;;;;;;;17.60;1.67;;;;;;;19.51;46.67;100453.81;16129985;19;129828;-58
2022/10/01 10:15:21;;;;;;;8.13;1.67;;;;;;;19.51;46.37;100464.94;16129491;19;129142;-58
2022/10/01 10:20:44;;;;;;;13.95;1.77;;;;;;;19.52;46.71;100478.53;16129938;19;129882;-59
2022/10/01 10:26:06;;;;;;;12.00;2.10;;;;;;;19.51;46.93;100485.16;16130727;19;129562;-59
2022/10/01 10:31:43;;;;;;;10.00;1.63;;;;;;;19.53;47.32;100501.56;16129088;19;129850;-59
2022/10/01 10:37:15;;;;;;;9.85;1.77;;;;;;;19.49;47.05;100511.50;16128918;19;129275;-59
2022/10/01 10:42:37;;;;;;;9.32;1.40;;;;;;;19.47;47.25;100522.88;16119135;19;131003;-59
2022/10/01 10:48:02;;;;;;;9.52;1.60;;;;;;;19.44;46.90;100525.34;16125482;19;129340;-59
2022/10/01 10:53:26;;;;;;;6.13;1.40;;;;;;;19.42;47.40;100541.41;16125694;19;129353;-59
2022/10/01 10:58:52;;;;;;;10.07;1.48;;;;;;;19.40;46.89;100546.38;16129100;19;129431;-59
2022/10/01 11:04:40;;;;;;;13.43;1.60;;;;;;;19.41;47.05;100553.59;16127277;19;129660;-59
2022/10/01 11:10:21;;;;;;;16.92;1.90;;;;;;;19.42;46.94;100555.28;16124444;19;129311;-58
2022/10/01 11:16:07;;;;;;;11.88;1.45;;;;;;;19.42;46.88;100558.06;16128118;19;129674;-59
2022/10/01 11:21:47;;;;;;;8.03;1.10;;;;;;;19.43;46.97;100568.06;16128647;19;129590;-60
2022/10/01 11:27:15;;;;;;;11.27;1.70;;;;;;;19.41;46.65;100582.16;16127081;19;129597;-59
2022/10/01 11:33:02;;;;;;;11.88;1.30;;;;;;;19.44;46.71;100580.84;16129142;19;130145;-59
2022/10/01 11:38:35;;;;;;;9.35;1.15;;;;;;;19.43;46.57;100579.16;16125184;19;129245;-59
2022/10/01 11:44:00;;;;;;;4.82;1.40;;;;;;;19.42;46.42;100588.56;16126700;19;129308;-58
2022/10/01 11:49:28;;;;;;;5.28;1.10;;;;;;;19.42;46.37;100594.13;16123285;19;129715;-59
2022/10/01 12:01:08;;;;;;;8.40;1.80;;;;;;;19.41;46.80;100596.03;16124726;19;129853;-58
2022/10/01 12:06:44;;;;;;;5.45;1.23;;;;;;;19.41;46.20;100614.63;16122883;19;129654;-58
2022/10/01 12:12:10;;;;;;;9.40;1.33;;;;;;;19.37;46.10;100609.59;16123700;19;130193;-59
2022/10/01 12:17:51;;;;;;;6.38;1.10;;;;;;;19.34;46.21;100626.75;16126153;19;130717;-58
2022/10/01 12:23:23;;;;;;;4.65;1.40;;;;;;;19.36;46.06;100632.88;16124151;19;130348;-59
2022/10/01 12:29:01;;;;;;;8.63;1.58;;;;;;;19.38;45.82;100629.88;16121662;19;129712;-59
2022/10/01 12:34:48;;;;;;;9.80;1.98;;;;;;;19.37;45.31;100642.06;16122086;19;129522;-58
2022/10/01 12:40:26;;;;;;;5.93;1.20;;;;;;;19.37;45.48;100637.34;16120175;19;129992;-59
2022/10/01 12:46:04;;;;;;;9.70;2.00;;;;;;;19.38;45.67;100644.56;16119964;19;130139;-58
2022/10/01 12:51:43;;;;;;;10.77;1.55;;;;;;;19.41;45.35;100650.69;16115251;19;129713;-58
2022/10/01 12:57:41;;;;;;;9.43;1.20;;;;;;;19.43;45.56;100656.81;16118047;19;129693;-58
2022/10/01 13:03:25;;;;;;;18.05;2.03;;;;;;;19.43;45.02;100663.19;16123279;19;129365;-58
2022/10/01 13:08:46;;;;;;;5.97;1.52;;;;;;;19.44;45.08;100680.69;16137202;19;129477;-58
2022/10/01 13:14:16;;;;;;;6.10;1.50;;;;;;;19.45;45.32;100679.56;16136039;19;129570;-58
2022/10/01 13:19:51;;;;;;;7.25;1.23;;;;;;;19.44;44.98;100692.63;16134425;19;129945;-58
2022/10/01 13:25:46;;;;;;;4.78;0.98;;;;;;;19.46;44.76;100700.69;16136171;19;129538;-59
2022/10/01 13:31:13;;;;;;;8.52;1.52;;;;;;;19.46;45.03;100707.09;16131239;19;130389;-58
2022/10/01 13:36:35;;;;;;;4.13;1.30;;;;;;;19.47;45.14;100721.78;16133853;19;130132;-59
2022/10/01 13:41:58;;;;;;;7.03;1.20;;;;;;;19.45;44.98;100737.84;16132037;19;129374;-58
2022/10/01 13:47:21;;;;;;;5.82;0.90;;;;;;;19.43;44.59;100734.50;16130721;19;129754;-58
2022/10/01 13:52:43;;;;;;;4.65;1.42;;;;;;;19.39;44.63;100742.47;16130440;19;129777;-58
2022/10/01 13:58:20;;;;;;;8.20;1.45;;;;;;;19.37;44.74;100742.75;16130969;19;130486;-58
2022/10/01 14:04:04;;;;;;;4.63;1.20;;;;;;;19.36;44.53;100765.19;16130284;19;129568;-58
2022/10/01 14:09:35;;;;;;;5.63;1.30;;;;;;;19.38;45.11;100772.16;16127124;19;130085;-58
2022/10/01 14:21:05;;;;;;;7.22;1.10;;;;;;;19.35;44.73;100783.75;16129628;19;129267;-58
2022/10/01 14:26:52;;;;;;;4.32;0.77;;;;;;;19.34;44.73;100798.72;16127320;19;129987;-58
2022/10/01 14:32:23;;;;;;;3.28;0.90;;;;;;;19.33;45.22;100804.53;16117123;19;130235;-58
2022/10/01 14:37:45;;;;;;;4.43;1.13;;;;;;;19.34;45.30;100820.09;16119181;19;130235;-58
2022/10/01 14:43:18;;;;;;;4.07;0.77;;;;;;;19.33;44.99;100816.47;16117880;19;131180;-58
2022/10/01 14:48:40;;;;;;;3.92;0.80;;;;;;;19.30;44.98;100825.31;16116979;19;129929;-58
2022/10/01 14:54:02;;;;;;;3.08;0.70;;;;;;;19.29;45.30;100843.03;16119048;19;129855;-58
2022/10/01 14:59:34;;;;;;;3.33;1.20;;;;;;;19.30;44.86;100839.19;16119740;19;129298;-57
2022/10/01 15:04:56;;;;;;;5.93;1.05;;;;;;;19.28;45.39;100854.38;16114744;19;130056;-58
2022/10/01 15:10:20;;;;;;;2.88;1.00;;;;;;;19.30;44.75;100869.69;16124815;19;129674;-58
2022/10/01 15:15:42;;;;;;;6.28;0.70;;;;;;;19.31;44.87;100876.91;16128397;19;129547;-59
2022/10/01 15:21:05;;;;;;;3.78;0.82;;;;;;;19.31;44.91;100888.03;16123108;19;129442;-58
2022/10/01 15:26:28;;;;;;;5.68;1.08;;;;;;;19.32;45.01;100891.63;16123527;19;129469;-59
2022/10/01 15:31:54;;;;;;;3.55;1.10;;;;;;;19.32;44.85;100895.22;16127398;19;130768;-58
2022/10/01 15:37:43;;;;;;;6.45;1.35;;;;;;;19.31;44.83;100899.13;16119544;19;129297;-58
2022/10/01 15:43:21;;;;;;;5.80;1.05;;;;;;;19.30;45.05;100902.13;16124650;19;129705;-58
2022/10/01 15:48:43;;;;;;;5.00;0.98;;;;;;;19.29;45.00;100914.31;16123122;19;130768;-58
2022/10/01 15:54:07;;;;;;;3.97;0.95;;;;;;;19.30;44.67;100921.53;16120884;19;130461;-58
2022/10/01 15:59:29;;;;;;;7.57;1.05;;;;;;;19.26;44.92;100918.44;16120254;19;130032;-58
2022/10/01 16:04:54;;;;;;;8.70;0.85;;;;;;;19.22;44.79;100933.88;16110184;19;131020;-57
2022/10/01 16:10:28;;;;;;;8.88;1.25;;;;;;;19.23;45.32;100941.13;16120717;19;129858;-58
2022/10/01 16:16:11;;;;;;;6.13;1.30;;;;;;;19.22;44.84;100942.19;16119219;19;131602;-57
2022/10/01 16:21:39;;;;;;;4.68;1.40;;;;;;;19.19;45.07;100953.78;16126085;19;130039;-57
2022/10/01 16:27:02;;;;;;;4.50;0.90;;;;;;;19.16;44.93;100959.81;16121616;19;129939;-55
2022/10/01 16:32:24;;;;;;;5.88;1.05;;;;;;;19.17;45.13;100975.38;16119469;19;130555;-59
2022/10/01 16:37:48;;;;;;;5.05;0.90;;;;;;;19.37;45.03;100984.09;16119265;19;129710;-61
2022/10/01 16:43:24;;;;;;;3.27;0.90;;;;;;;19.72;44.50;100981.31;16119472;19;129440;-60
2022/10/01 16:48:48;;;;;;;5.00;1.00;;;;;;;19.96;44.12;100999.50;16119093;19;129110;-59
2022/10/01 16:54:20;;;;;;;6.32;1.30;;;;;;;20.13;44.12;101002.28;16120623;19;129382;-59
2022/10/01 16:59:42;;;;;;;3.88;1.02;;;;;;;20.20;44.08;101016.00;16119324;19;129357;-59
2022/10/01 17:05:04;;;;;;;3.63;0.80;;;;;;;20.20;44.13;101021.53;16118807;19;129796;-59
2022/10/01 17:10:35;;;;;;;3.65;1.10;;;;;;;20.19;44.12;101036.53;16113384;19;130367;-59
2022/10/01 17:15:57;;;;;;;3.58;0.80;;;;;;;20.13;44.25;101051.44;16118634;19;130833;-58
2022/10/01 17:21:19;;;;;;;2.97;0.70;;;;;;;20.08;44.12;101051.34;16118062;19;130707;-58
2022/10/01 17:26:44;;;;;;;2.15;0.70;;;;;;;20.02;44.50;101060.72;16120905;19;129559;-59
2022/10/01 17:32:05;;;;;;;9.83;1.10;;;;;;;19.96;44.52;101065.31;16120715;19;129530;-58
2022/10/01 17:37:27;;;;;;;11.93;1.45;;;;;;;19.93;45.34;101075.00;16120646;19;129945;-62
2022/10/01 17:42:49;;;;;;;8.85;1.35;;;;;;;19.95;45.02;101094.16;16117321;19;129644;-61
2022/10/01 17:48:11;;;;;;;6.60;0.80;;;;;;;19.93;45.13;101094.44;16121092;19;129434;-62
2022/10/01 17:53:34;;;;;;;12.50;1.00;;;;;;;19.93;45.57;101105.53;16136278;19;129817;-59
2022/10/01 17:59:03;;;;;;;8.43;1.20;;;;;;;19.87;45.64;101116.81;16131022;19;129525;-58
2022/10/01 18:04:24;;;;;;;12.25;1.25;;;;;;;19.88;45.87;101124.03;16133633;19;130411;-59
2022/10/01 18:09:46;;;;;;;8.70;0.88;;;;;;;19.90;46.33;101121.81;16131772;19;129353;-59
2022/10/01 18:15:08;;;;;;;10.40;1.23;;;;;;;19.89;46.33;101131.25;16126520;19;130555;-59
2022/10/01 18:20:30;;;;;;;26.17;1.85;;;;;;;19.90;46.42;101144.91;16134277;19;129500;-60
2022/10/01 18:25:52;;;;;;;5.43;0.98;;;;;;;19.98;46.18;101147.25;16130010;19;132014;-59
2022/10/01 18:31:17;;;;;;;7.38;1.10;;;;;;;20.06;46.15;101161.88;16129168;19;129467;-54
2022/10/01 18:37:03;;;;;;;11.85;1.42;;;;;;;20.10;46.07;101172.22;16130568;19;129859;-61
2022/10/01 18:42:40;;;;;;;5.80;1.17;;;;;;;20.12;45.94;101169.19;16125014;19;129384;-61
2022/10/01 18:48:32;;;;;;;8.05;1.10;;;;;;;20.14;46.07;101178.13;16127429;19;130104;-61
2022/10/01 18:54:19;;;;;;;12.90;1.20;;;;;;;20.13;46.24;101182.00;16132104;19;130207;-62
2022/10/01 19:00:00;;;;;;;16.42;1.40;;;;;;;20.18;46.03;101190.44;16127795;19;129558;-59
2022/10/01 19:05:49;;;;;;;17.55;1.23;;;;;;;20.21;45.75;101189.91;16127411;19;130396;-60
2022/10/01 19:11:22;;;;;;;14.25;1.30;;;;;;;20.23;45.96;101198.84;16125031;19;129388;-60
2022/10/01 19:16:43;;;;;;;6.00;0.88;;;;;;;20.27;46.06;101197.25;16123109;19;130734;-61
2022/10/01 19:22:43;;;;;;;7.57;1.20;;;;;;;20.33;45.81;101211.22;16125380;19;129675;-61
2022/10/01 19:28:41;;;;;;;9.65;1.30;;;;;;;20.35;45.61;101220.16;16124111;19;129564;-60
2022/10/01 19:34:36;;;;;;;6.22;1.20;;;;;;;20.37;45.76;101226.31;16122429;19;129956;-60
2022/10/01 19:40:30;;;;;;;8.38;0.70;;;;;;;20.39;45.75;101224.13;16124484;19;129666;-60
2022/10/01 19:46:11;;;;;;;5.43;1.13;;;;;;;20.42;45.78;101234.75;16126740;19;130440;-61
2022/10/01 19:51:43;;;;;;;2.75;0.88;;;;;;;20.40;45.79;101234.97;16123464;19;129384;-60
2022/10/01 19:57:16;;;;;;;8.77;1.02;;;;;;;20.39;45.76;101241.63;16123656;19;130367;-63
2022/10/01 20:02:48;;;;;;;4.85;0.88;;;;;;;20.40;45.63;101237.75;16124984;19;129720;-61
2022/10/01 20:08:23;;;;;;;7.38;1.17;;;;;;;20.44;45.79;101249.19;16123550;19;129566;-69
2022/10/01 20:20:13;;;;;;;3.17;0.80;;;;;;;20.39;45.66;101263.84;16121990;19;130086;-69
2022/10/01 20:25:55;;;;;;;5.90;0.80;;;;;;;20.34;45.67;101271.25;16123903;19;129809;-71
2022/10/01 20:31:56;;;;;;;9.77;1.00;;;;;;;20.28;45.94;101276.72;16122317;19;130178;-66
2022/10/01 20:37:33;;;;;;;7.90;1.10;;;;;;;20.25;45.95;101280.00;16122343;19;129860;-63
2022/10/01 20:43:04;;;;;;;7.78;0.90;;;;;;;20.20;46.31;101287.41;16119934;19;130120;-61
2022/10/01 20:48:32;;;;;;;3.97;0.80;;;;;;;20.16;46.37;101291.75;16118540;19;129423;-61
2022/10/01 20:54:01;;;;;;;7.18;0.93;;;;;;;20.11;46.49;101295.28;16119296;19;129604;-61
2022/10/01 20:59:29;;;;;;;8.23;1.20;;;;;;;20.06;46.48;101303.53;16114254;19;129378;-62
2022/10/01 21:05:06;;;;;;;9.77;1.00;;;;;;;20.02;46.61;101313.44;16120265;19;129438;-61
2022/10/01 21:10:45;;;;;;;6.32;1.10;;;;;;;19.96;46.72;101310.50;16120134;19;129868;-61
2022/10/01 21:16:34;;;;;;;7.13;1.20;;;;;;;19.91;46.38;101318.75;16122681;19;132037;-61
2022/10/01 21:22:26;;;;;;;8.52;2.05;;;;;;;19.86;46.57;101321.41;16118762;19;128926;-62
2022/10/01 21:27:58;;;;;;;4.53;0.80;;;;;;;19.83;46.77;101341.31;16134395;19;129736;-61
2022/10/01 21:33:25;;;;;;;3.25;0.70;;;;;;;19.80;46.65;101339.06;16132047;19;129055;-61
2022/10/01 21:38:57;;;;;;;3.47;0.90;;;;;;;19.77;46.65;101340.38;16134460;19;130679;-61
2022/10/01 21:44:58;;;;;;;3.95;0.77;;;;;;;19.75;46.76;101338.94;16132561;19;130779;-63
2022/10/01 21:50:20;;;;;;;3.95;0.70;;;;;;;19.72;46.47;101342.19;16135718;19;129470;-61
2022/10/01 21:56:00;;;;;;;5.28;0.60;;;;;;;19.71;46.39;101357.16;16134679;19;129786;-62
2022/10/01 22:01:40;;;;;;;3.03;0.65;;;;;;;19.66;46.62;101361.50;16134098;19;129464;-61
2022/10/01 22:07:35;;;;;;;3.17;0.70;;;;;;;19.65;46.89;101339.53;16133492;19;128917;-61
2022/10/01 22:13:03;;;;;;;2.88;0.70;;;;;;;19.62;46.34;101351.16;16125882;19;131153;-61
2022/10/01 22:18:47;;;;;;;3.15;0.95;;;;;;;19.61;46.38;101353.06;16123415;19;130431;-61
2022/10/01 22:24:13;;;;;;;2.30;0.65;;;;;;;19.60;46.41;101358.88;16126818;19;129897;-61
2022/10/01 22:29:37;;;;;;;;;;;;;;;19.56;46.50;101361.28;16122808;19;129689;-62
2022/10/01 22:35:03;;;;;;;2.63;0.80;;;;;;;19.58;46.83;101355.47;16120928;19;129500;-62
2022/10/01 22:40:34;;;;;;;3.35;0.75;;;;;;;19.58;46.79;101363.81;16125478;19;130320;-62
2022/10/01 22:46:28;;;;;;;4.57;0.82;;;;;;;19.59;46.35;101382.97;16126914;19;129533;-61
2022/10/01 22:52:04;;;;;;;2.38;0.63;;;;;;;19.58;46.55;101383.25;16130350;19;130361;-61
2022/10/01 22:57:32;;;;;;;1.50;0.50;;;;;;;19.56;46.58;101388.19;16125577;19;129835;-61
2022/10/01 23:03:19;;;;;;;2.72;0.70;;;;;;;19.55;46.54;101387.34;16128030;19;130833;-61
2022/10/01 23:08:47;;;;;;;2.30;0.60;;;;;;;19.56;46.50;101388.19;16124454;19;129410;-61
2022/10/01 23:14:42;;;;;;;2.80;0.70;;;;;;;19.55;46.29;101386.50;16128576;19;129721;-62
2022/10/01 23:20:36;;;;;;;2.78;0.70;;;;;;;19.54;46.23;101382.88;16124283;19;130163;-62
2022/10/01 23:26:16;;;;;;;1.52;0.55;;;;;;;19.53;46.31;101389.50;16126028;19;129219;-61
2022/10/01 23:32:07;;;;;;;1.92;0.50;;;;;;;19.52;46.29;101393.38;16123910;19;129566;-62
2022/10/01 23:37:28;;;;;;;1.90;0.57;;;;;;;19.50;46.56;101401.09;16127344;19;129696;-62
2022/10/01 23:43:19;;;;;;;2.88;0.73;;;;;;;19.48;46.26;101397.72;16124795;19;130184;-62
2022/10/01 23:48:59;;;;;;;2.72;0.75;;;;;;;19.49;46.49;101403.03;16124226;19;133221;-62
2022/10/01 23:54:43;;;;;;;2.50;0.60;;;;;;;19.47;46.70;101415.44;16123010;19;129595;-62
